sensor_id;sensor_type;location;lat;lon;timestamp;P1;durP1;ratioP1;P2;durP2;ratioP2
74679;SDS011;63211;48.548;2.704;2024-01-11T00:00:28;4.80;;;2.33;;
74679;SDS011;63211;48.548;2.704;2024-01-11T00:02:56;4.32;;;2.22;;
74679;SDS011;63211;48.548;2.704;2024-01-11T00:05:22;2.58;;;1.60;;
74679;SDS011;63211;48.548;2.704;2024-01-11T00:07:49;4.32;;;1.73;;
74679;SDS011;63211;48.548;2.704;2024-01-11T00:10:16;3.60;;;1.70;;
74679;SDS011;63211;48.548;2.704;2024-01-11T00:12:43;3.70;;;1.75;;
74679;SDS011;63211;48.548;2.704;2024-01-11T00:15:09;3.15;;;2.08;;
74679;SDS011;63211;48.548;2.704;2024-01-11T00:17:36;3.50;;;1.73;;
74679;SDS011;63211;48.548;2.704;2024-01-11T00:20:05;3.30;;;1.70;;
74679;SDS011;63211;48.548;2.704;2024-01-11T00:22:32;3.97;;;1.92;;
74679;SDS011;63211;48.548;2.704;2024-01-11T00:24:59;3.65;;;1.65;;
74679;SDS011;63211;48.548;2.704;2024-01-11T00:27:25;3.42;;;1.85;;
74679;SDS011;63211;48.548;2.704;2024-01-11T00:29:54;4.18;;;1.70;;
74679;SDS011;63211;48.548;2.704;2024-01-11T00:32:20;3.33;;;1.75;;
74679;SDS011;63211;48.548;2.704;2024-01-11T00:34:47;3.15;;;1.65;;
74679;SDS011;63211;48.548;2.704;2024-01-11T00:37:15;3.83;;;2.00;;
74679;SDS011;63211;48.548;2.704;2024-01-11T00:39:42;3.83;;;1.90;;
74679;SDS011;63211;48.548;2.704;2024-01-11T00:42:09;3.10;;;1.67;;
74679;SDS011;63211;48.548;2.704;2024-01-11T00:44:35;3.40;;;1.50;;
74679;SDS011;63211;48.548;2.704;2024-01-11T00:47:02;3.88;;;1.55;;
74679;SDS011;63211;48.548;2.704;2024-01-11T00:49:29;2.92;;;1.63;;
74679;SDS011;63211;48.548;2.704;2024-01-11T00:51:55;3.38;;;1.90;;
74679;SDS011;63211;48.548;2.704;2024-01-11T00:54:23;3.10;;;1.55;;
74679;SDS011;63211;48.548;2.704;2024-01-11T00:56:50;3.83;;;2.00;;
74679;SDS011;63211;48.548;2.704;2024-01-11T00:59:16;3.58;;;1.58;;
74679;SDS011;63211;48.548;2.704;2024-01-11T01:01:46;3.13;;;1.60;;
74679;SDS011;63211;48.548;2.704;2024-01-11T01:04:13;3.35;;;1.67;;
74679;SDS011;63211;48.548;2.704;2024-01-11T01:06:40;2.88;;;1.35;;
74679;SDS011;63211;48.548;2.704;2024-01-11T01:09:07;3.35;;;1.75;;
74679;SDS011;63211;48.548;2.704;2024-01-11T01:11:35;2.58;;;1.58;;
74679;SDS011;63211;48.548;2.704;2024-01-11T01:14:02;4.07;;;1.85;;
74679;SDS011;63211;48.548;2.704;2024-01-11T01:16:28;2.83;;;1.42;;
74679;SDS011;63211;48.548;2.704;2024-01-11T01:18:55;3.45;;;1.75;;
74679;SDS011;63211;48.548;2.704;2024-01-11T01:21:22;3.78;;;1.70;;
74679;SDS011;63211;48.548;2.704;2024-01-11T01:23:48;3.10;;;1.75;;
74679;SDS011;63211;48.548;2.704;2024-01-11T01:26:15;3.83;;;1.80;;
74679;SDS011;63211;48.548;2.704;2024-01-11T01:28:43;2.92;;;1.80;;
74679;SDS011;63211;48.548;2.704;2024-01-11T01:31:09;3.17;;;1.65;;
74679;SDS011;63211;48.548;2.704;2024-01-11T01:33:36;3.85;;;1.60;;
74679;SDS011;63211;48.548;2.704;2024-01-11T01:36:03;3.50;;;1.70;;
74679;SDS011;63211;48.548;2.704;2024-01-11T01:38:30;2.60;;;1.45;;
74679;SDS011;63211;48.548;2.704;2024-01-11T01:40:56;3.10;;;1.73;;
74679;SDS011;63211;48.548;2.704;2024-01-11T01:43:23;4.00;;;1.55;;
74679;SDS011;63211;48.548;2.704;2024-01-11T01:45:51;3.15;;;1.45;;
74679;SDS011;63211;48.548;2.704;2024-01-11T01:48:18;3.22;;;1.67;;
74679;SDS011;63211;48.548;2.704;2024-01-11T01:50:45;5.53;;;1.77;;
74679;SDS011;63211;48.548;2.704;2024-01-11T01:53:15;2.35;;;1.33;;
74679;SDS011;63211;48.548;2.704;2024-01-11T01:55:42;3.97;;;1.83;;
74679;SDS011;63211;48.548;2.704;2024-01-11T01:58:09;2.70;;;1.48;;
74679;SDS011;63211;48.548;2.704;2024-01-11T02:00:36;2.83;;;1.30;;
74679;SDS011;63211;48.548;2.704;2024-01-11T02:03:04;3.13;;;1.48;;
74679;SDS011;63211;48.548;2.704;2024-01-11T02:05:31;3.30;;;1.73;;
74679;SDS011;63211;48.548;2.704;2024-01-11T02:07:57;2.60;;;1.45;;
74679;SDS011;63211;48.548;2.704;2024-01-11T02:10:27;3.00;;;1.83;;
74679;SDS011;63211;48.548;2.704;2024-01-11T02:12:54;2.92;;;1.45;;
74679;SDS011;63211;48.548;2.704;2024-01-11T02:15:20;5.22;;;1.70;;
74679;SDS011;63211;48.548;2.704;2024-01-11T02:17:47;2.97;;;1.48;;
74679;SDS011;63211;48.548;2.704;2024-01-11T02:20:15;5.10;;;1.70;;
74679;SDS011;63211;48.548;2.704;2024-01-11T02:22:42;2.97;;;1.60;;
74679;SDS011;63211;48.548;2.704;2024-01-11T02:25:17;3.55;;;1.45;;
74679;SDS011;63211;48.548;2.704;2024-01-11T02:27:44;3.75;;;1.67;;
74679;SDS011;63211;48.548;2.704;2024-01-11T02:30:12;2.80;;;1.48;;
74679;SDS011;63211;48.548;2.704;2024-01-11T02:32:38;2.33;;;1.55;;
74679;SDS011;63211;48.548;2.704;2024-01-11T02:35:05;3.70;;;1.50;;
74679;SDS011;63211;48.548;2.704;2024-01-11T02:37:33;3.38;;;1.55;;
74679;SDS011;63211;48.548;2.704;2024-01-11T02:39:59;7.13;;;1.75;;
74679;SDS011;63211;48.548;2.704;2024-01-11T02:42:27;3.00;;;1.60;;
74679;SDS011;63211;48.548;2.704;2024-01-11T02:44:54;2.72;;;1.30;;
74679;SDS011;63211;48.548;2.704;2024-01-11T02:47:20;3.50;;;1.52;;
74679;SDS011;63211;48.548;2.704;2024-01-11T02:49:47;4.53;;;1.77;;
74679;SDS011;63211;48.548;2.704;2024-01-11T02:52:13;2.55;;;1.23;;
74679;SDS011;63211;48.548;2.704;2024-01-11T02:54:40;3.58;;;1.60;;
74679;SDS011;63211;48.548;2.704;2024-01-11T02:57:07;4.50;;;1.75;;
74679;SDS011;63211;48.548;2.704;2024-01-11T02:59:35;2.97;;;1.50;;
74679;SDS011;63211;48.548;2.704;2024-01-11T03:02:02;2.97;;;1.90;;
74679;SDS011;63211;48.548;2.704;2024-01-11T03:04:29;3.30;;;2.00;;
74679;SDS011;63211;48.548;2.704;2024-01-11T03:06:55;3.33;;;1.48;;
74679;SDS011;63211;48.548;2.704;2024-01-11T03:09:22;5.25;;;2.00;;
74679;SDS011;63211;48.548;2.704;2024-01-11T03:11:49;3.00;;;1.60;;
74679;SDS011;63211;48.548;2.704;2024-01-11T03:14:15;2.63;;;1.50;;
74679;SDS011;63211;48.548;2.704;2024-01-11T03:16:43;3.40;;;1.60;;
74679;SDS011;63211;48.548;2.704;2024-01-11T03:19:10;3.42;;;1.67;;
74679;SDS011;63211;48.548;2.704;2024-01-11T03:21:41;2.75;;;1.40;;
74679;SDS011;63211;48.548;2.704;2024-01-11T03:24:08;3.45;;;1.73;;
74679;SDS011;63211;48.548;2.704;2024-01-11T03:26:34;2.78;;;1.58;;
74679;SDS011;63211;48.548;2.704;2024-01-11T03:29:01;3.38;;;1.70;;
74679;SDS011;63211;48.548;2.704;2024-01-11T03:31:28;2.83;;;1.60;;
74679;SDS011;63211;48.548;2.704;2024-01-11T03:33:56;2.58;;;1.40;;
74679;SDS011;63211;48.548;2.704;2024-01-11T03:36:22;3.58;;;1.88;;
74679;SDS011;63211;48.548;2.704;2024-01-11T03:38:50;3.63;;;1.45;;
74679;SDS011;63211;48.548;2.704;2024-01-11T03:41:17;3.08;;;1.80;;
74679;SDS011;63211;48.548;2.704;2024-01-11T03:43:44;3.53;;;1.45;;
74679;SDS011;63211;48.548;2.704;2024-01-11T03:46:11;2.45;;;1.50;;
74679;SDS011;63211;48.548;2.704;2024-01-11T03:48:37;3.65;;;1.80;;
74679;SDS011;63211;48.548;2.704;2024-01-11T03:51:05;3.28;;;1.48;;
74679;SDS011;63211;48.548;2.704;2024-01-11T03:53:34;2.83;;;1.48;;
74679;SDS011;63211;48.548;2.704;2024-01-11T03:56:00;3.17;;;1.60;;
74679;SDS011;63211;48.548;2.704;2024-01-11T03:58:27;3.38;;;1.77;;
74679;SDS011;63211;48.548;2.704;2024-01-11T04:00:54;4.07;;;1.52;;
74679;SDS011;63211;48.548;2.704;2024-01-11T04:03:20;3.13;;;1.42;;
74679;SDS011;63211;48.548;2.704;2024-01-11T04:05:47;3.83;;;1.73;;
74679;SDS011;63211;48.548;2.704;2024-01-11T04:08:15;3.67;;;1.65;;
74679;SDS011;63211;48.548;2.704;2024-01-11T04:10:42;2.72;;;1.27;;
74679;SDS011;63211;48.548;2.704;2024-01-11T04:13:09;3.83;;;1.80;;
74679;SDS011;63211;48.548;2.704;2024-01-11T04:15:35;2.53;;;1.50;;
74679;SDS011;63211;48.548;2.704;2024-01-11T04:18:02;2.90;;;1.50;;
74679;SDS011;63211;48.548;2.704;2024-01-11T04:20:29;3.72;;;1.77;;
74679;SDS011;63211;48.548;2.704;2024-01-11T04:22:55;3.35;;;1.70;;
74679;SDS011;63211;48.548;2.704;2024-01-11T04:25:23;3.63;;;1.50;;
74679;SDS011;63211;48.548;2.704;2024-01-11T04:27:50;3.85;;;1.73;;
74679;SDS011;63211;48.548;2.704;2024-01-11T04:30:16;3.85;;;1.63;;
74679;SDS011;63211;48.548;2.704;2024-01-11T04:32:43;2.33;;;1.52;;
74679;SDS011;63211;48.548;2.704;2024-01-11T04:35:09;3.53;;;1.50;;
74679;SDS011;63211;48.548;2.704;2024-01-11T04:37:36;3.05;;;1.42;;
74679;SDS011;63211;48.548;2.704;2024-01-11T04:40:03;3.17;;;1.50;;
74679;SDS011;63211;48.548;2.704;2024-01-11T04:42:31;3.30;;;1.65;;
74679;SDS011;63211;48.548;2.704;2024-01-11T04:44:58;3.38;;;1.38;;
74679;SDS011;63211;48.548;2.704;2024-01-11T04:47:24;3.35;;;1.70;;
74679;SDS011;63211;48.548;2.704;2024-01-11T04:49:51;2.95;;;1.73;;
74679;SDS011;63211;48.548;2.704;2024-01-11T04:52:18;2.75;;;1.40;;
74679;SDS011;63211;48.548;2.704;2024-01-11T04:54:44;3.22;;;1.65;;
74679;SDS011;63211;48.548;2.704;2024-01-11T04:57:11;2.13;;;1.23;;
74679;SDS011;63211;48.548;2.704;2024-01-11T04:59:39;3.92;;;1.63;;
74679;SDS011;63211;48.548;2.704;2024-01-11T05:02:05;2.58;;;1.52;;
74679;SDS011;63211;48.548;2.704;2024-01-11T05:04:32;3.00;;;1.60;;
74679;SDS011;63211;48.548;2.704;2024-01-11T05:06:58;3.72;;;1.67;;
74679;SDS011;63211;48.548;2.704;2024-01-11T05:09:25;5.13;;;1.45;;
74679;SDS011;63211;48.548;2.704;2024-01-11T05:11:51;2.33;;;1.38;;
74679;SDS011;63211;48.548;2.704;2024-01-11T05:14:18;3.83;;;1.70;;
74679;SDS011;63211;48.548;2.704;2024-01-11T05:16:46;3.00;;;1.60;;
74679;SDS011;63211;48.548;2.704;2024-01-11T05:19:12;3.00;;;1.50;;
74679;SDS011;63211;48.548;2.704;2024-01-11T05:21:39;3.17;;;1.65;;
74679;SDS011;63211;48.548;2.704;2024-01-11T05:24:06;3.10;;;1.60;;
74679;SDS011;63211;48.548;2.704;2024-01-11T05:26:32;3.58;;;2.00;;
74679;SDS011;63211;48.548;2.704;2024-01-11T05:28:59;3.22;;;1.45;;
74679;SDS011;63211;48.548;2.704;2024-01-11T05:31:25;3.85;;;1.67;;
74679;SDS011;63211;48.548;2.704;2024-01-11T05:33:53;3.53;;;1.40;;
74679;SDS011;63211;48.548;2.704;2024-01-11T05:36:20;4.38;;;1.70;;
74679;SDS011;63211;48.548;2.704;2024-01-11T05:38:46;3.65;;;1.65;;
74679;SDS011;63211;48.548;2.704;2024-01-11T05:41:13;2.42;;;1.60;;
74679;SDS011;63211;48.548;2.704;2024-01-11T05:43:40;3.40;;;1.52;;
74679;SDS011;63211;48.548;2.704;2024-01-11T05:46:07;3.10;;;1.70;;
74679;SDS011;63211;48.548;2.704;2024-01-11T05:48:34;3.28;;;1.90;;
74679;SDS011;63211;48.548;2.704;2024-01-11T05:51:02;4.53;;;1.80;;
74679;SDS011;63211;48.548;2.704;2024-01-11T05:53:29;2.75;;;1.50;;
74679;SDS011;63211;48.548;2.704;2024-01-11T05:55:58;3.03;;;1.48;;
74679;SDS011;63211;48.548;2.704;2024-01-11T05:58:25;4.18;;;1.55;;
74679;SDS011;63211;48.548;2.704;2024-01-11T06:00:51;3.92;;;1.40;;
74679;SDS011;63211;48.548;2.704;2024-01-11T06:03:18;2.97;;;1.58;;
74679;SDS011;63211;48.548;2.704;2024-01-11T06:05:44;2.83;;;1.60;;
74679;SDS011;63211;48.548;2.704;2024-01-11T06:08:12;3.58;;;1.63;;
74679;SDS011;63211;48.548;2.704;2024-01-11T06:10:39;4.60;;;2.00;;
74679;SDS011;63211;48.548;2.704;2024-01-11T06:13:05;5.20;;;2.55;;
74679;SDS011;63211;48.548;2.704;2024-01-11T06:15:33;5.63;;;2.35;;
74679;SDS011;63211;48.548;2.704;2024-01-11T06:17:59;3.88;;;2.35;;
74679;SDS011;63211;48.548;2.704;2024-01-11T06:20:26;3.08;;;1.90;;
74679;SDS011;63211;48.548;2.704;2024-01-11T06:22:52;3.60;;;1.75;;
74679;SDS011;63211;48.548;2.704;2024-01-11T06:25:21;5.85;;;1.75;;
74679;SDS011;63211;48.548;2.704;2024-01-11T06:27:47;3.83;;;1.63;;
74679;SDS011;63211;48.548;2.704;2024-01-11T06:30:14;3.50;;;1.70;;
74679;SDS011;63211;48.548;2.704;2024-01-11T06:32:40;4.10;;;1.98;;
74679;SDS011;63211;48.548;2.704;2024-01-11T06:35:08;5.88;;;2.30;;
74679;SDS011;63211;48.548;2.704;2024-01-11T06:37:34;3.55;;;1.75;;
74679;SDS011;63211;48.548;2.704;2024-01-11T06:40:01;6.15;;;1.83;;
74679;SDS011;63211;48.548;2.704;2024-01-11T06:42:30;3.80;;;1.70;;
74679;SDS011;63211;48.548;2.704;2024-01-11T06:44:56;3.92;;;2.13;;
74679;SDS011;63211;48.548;2.704;2024-01-11T06:47:23;4.07;;;2.13;;
74679;SDS011;63211;48.548;2.704;2024-01-11T06:49:49;5.82;;;2.40;;
74679;SDS011;63211;48.548;2.704;2024-01-11T06:52:16;6.03;;;2.63;;
74679;SDS011;63211;48.548;2.704;2024-01-11T06:54:42;4.22;;;2.22;;
74679;SDS011;63211;48.548;2.704;2024-01-11T06:57:09;4.90;;;2.15;;
74679;SDS011;63211;48.548;2.704;2024-01-11T06:59:37;7.82;;;2.55;;
74679;SDS011;63211;48.548;2.704;2024-01-11T07:02:03;6.55;;;2.30;;
74679;SDS011;63211;48.548;2.704;2024-01-11T07:04:30;6.13;;;2.63;;
74679;SDS011;63211;48.548;2.704;2024-01-11T07:06:56;4.68;;;2.08;;
74679;SDS011;63211;48.548;2.704;2024-01-11T07:09:23;5.30;;;2.83;;
74679;SDS011;63211;48.548;2.704;2024-01-11T07:11:50;6.75;;;3.00;;
74679;SDS011;63211;48.548;2.704;2024-01-11T07:14:17;4.70;;;2.47;;
74679;SDS011;63211;48.548;2.704;2024-01-11T07:16:44;6.07;;;2.50;;
74679;SDS011;63211;48.548;2.704;2024-01-11T07:19:11;3.80;;;2.22;;
74679;SDS011;63211;48.548;2.704;2024-01-11T07:21:38;6.25;;;3.20;;
74679;SDS011;63211;48.548;2.704;2024-01-11T07:24:04;4.65;;;2.50;;
74679;SDS011;63211;48.548;2.704;2024-01-11T07:26:31;6.15;;;3.17;;
74679;SDS011;63211;48.548;2.704;2024-01-11T07:28:57;5.25;;;2.88;;
74679;SDS011;63211;48.548;2.704;2024-01-11T07:31:24;5.90;;;3.38;;
74679;SDS011;63211;48.548;2.704;2024-01-11T07:33:52;6.40;;;2.60;;
74679;SDS011;63211;48.548;2.704;2024-01-11T07:36:18;4.30;;;2.67;;
74679;SDS011;63211;48.548;2.704;2024-01-11T07:38:45;5.20;;;3.13;;
74679;SDS011;63211;48.548;2.704;2024-01-11T07:41:11;6.32;;;3.47;;
74679;SDS011;63211;48.548;2.704;2024-01-11T07:43:39;10.93;;;3.55;;
74679;SDS011;63211;48.548;2.704;2024-01-11T07:46:06;12.20;;;3.85;;
74679;SDS011;63211;48.548;2.704;2024-01-11T07:48:32;11.50;;;3.40;;
74679;SDS011;63211;48.548;2.704;2024-01-11T07:51:01;8.00;;;3.70;;
74679;SDS011;63211;48.548;2.704;2024-01-11T07:53:28;8.13;;;3.92;;
74679;SDS011;63211;48.548;2.704;2024-01-11T07:55:54;11.77;;;4.00;;
74679;SDS011;63211;48.548;2.704;2024-01-11T07:58:21;7.82;;;3.15;;
74679;SDS011;63211;48.548;2.704;2024-01-11T08:00:48;8.05;;;3.33;;
74679;SDS011;63211;48.548;2.704;2024-01-11T08:03:14;9.93;;;3.05;;
74679;SDS011;63211;48.548;2.704;2024-01-11T08:05:41;6.05;;;2.78;;
74679;SDS011;63211;48.548;2.704;2024-01-11T08:08:10;7.55;;;3.17;;
74679;SDS011;63211;48.548;2.704;2024-01-11T08:10:37;10.20;;;2.90;;
74679;SDS011;63211;48.548;2.704;2024-01-11T08:13:03;11.80;;;3.15;;
74679;SDS011;63211;48.548;2.704;2024-01-11T08:15:30;7.07;;;2.65;;
74679;SDS011;63211;48.548;2.704;2024-01-11T08:17:57;8.85;;;2.83;;
74679;SDS011;63211;48.548;2.704;2024-01-11T08:20:23;8.43;;;3.50;;
74679;SDS011;63211;48.548;2.704;2024-01-11T08:22:50;8.02;;;2.70;;
74679;SDS011;63211;48.548;2.704;2024-01-11T08:25:17;9.20;;;3.03;;
74679;SDS011;63211;48.548;2.704;2024-01-11T08:27:43;5.88;;;2.70;;
74679;SDS011;63211;48.548;2.704;2024-01-11T08:30:10;11.23;;;2.83;;
74679;SDS011;63211;48.548;2.704;2024-01-11T08:32:37;7.70;;;2.63;;
74679;SDS011;63211;48.548;2.704;2024-01-11T08:35:07;7.35;;;3.58;;
74679;SDS011;63211;48.548;2.704;2024-01-11T08:37:35;5.95;;;3.20;;
74679;SDS011;63211;48.548;2.704;2024-01-11T08:40:01;7.97;;;2.80;;
74679;SDS011;63211;48.548;2.704;2024-01-11T08:42:31;5.70;;;3.03;;
74679;SDS011;63211;48.548;2.704;2024-01-11T08:44:57;5.90;;;3.05;;
74679;SDS011;63211;48.548;2.704;2024-01-11T08:47:28;6.13;;;3.13;;
74679;SDS011;63211;48.548;2.704;2024-01-11T08:49:56;6.85;;;3.95;;
74679;SDS011;63211;48.548;2.704;2024-01-11T08:52:22;7.70;;;3.47;;
74679;SDS011;63211;48.548;2.704;2024-01-11T08:54:49;5.75;;;3.13;;
74679;SDS011;63211;48.548;2.704;2024-01-11T08:57:15;5.97;;;2.95;;
74679;SDS011;63211;48.548;2.704;2024-01-11T08:59:43;5.53;;;3.30;;
74679;SDS011;63211;48.548;2.704;2024-01-11T09:02:10;5.63;;;2.95;;
74679;SDS011;63211;48.548;2.704;2024-01-11T09:04:36;6.10;;;2.97;;
74679;SDS011;63211;48.548;2.704;2024-01-11T09:07:03;6.45;;;3.10;;
74679;SDS011;63211;48.548;2.704;2024-01-11T09:09:30;6.38;;;3.08;;
74679;SDS011;63211;48.548;2.704;2024-01-11T09:11:56;6.45;;;2.75;;
74679;SDS011;63211;48.548;2.704;2024-01-11T09:14:23;5.35;;;2.78;;
74679;SDS011;63211;48.548;2.704;2024-01-11T09:16:51;7.22;;;2.78;;
74679;SDS011;63211;48.548;2.704;2024-01-11T09:19:17;5.00;;;2.72;;
74679;SDS011;63211;48.548;2.704;2024-01-11T09:21:44;6.57;;;3.03;;
74679;SDS011;63211;48.548;2.704;2024-01-11T09:24:11;5.65;;;2.67;;
74679;SDS011;63211;48.548;2.704;2024-01-11T09:26:38;4.72;;;3.03;;
74679;SDS011;63211;48.548;2.704;2024-01-11T09:29:04;5.78;;;3.30;;
74679;SDS011;63211;48.548;2.704;2024-01-11T09:31:31;5.63;;;3.15;;
74679;SDS011;63211;48.548;2.704;2024-01-11T09:33:59;5.28;;;2.58;;
74679;SDS011;63211;48.548;2.704;2024-01-11T09:36:25;8.05;;;3.15;;
74679;SDS011;63211;48.548;2.704;2024-01-11T09:38:52;4.75;;;2.53;;
74679;SDS011;63211;48.548;2.704;2024-01-11T09:41:18;5.00;;;2.70;;
74679;SDS011;63211;48.548;2.704;2024-01-11T09:43:45;5.78;;;2.85;;
74679;SDS011;63211;48.548;2.704;2024-01-11T09:46:14;6.05;;;3.15;;
74679;SDS011;63211;48.548;2.704;2024-01-11T09:48:42;4.53;;;2.13;;
74679;SDS011;63211;48.548;2.704;2024-01-11T09:51:13;5.20;;;2.83;;
74679;SDS011;63211;48.548;2.704;2024-01-11T09:53:40;4.72;;;3.05;;
74679;SDS011;63211;48.548;2.704;2024-01-11T09:56:08;5.00;;;2.70;;
74679;SDS011;63211;48.548;2.704;2024-01-11T09:58:36;5.50;;;2.50;;
74679;SDS011;63211;48.548;2.704;2024-01-11T10:01:06;3.90;;;2.05;;
74679;SDS011;63211;48.548;2.704;2024-01-11T10:03:38;4.40;;;1.92;;
74679;SDS011;63211;48.548;2.704;2024-01-11T10:06:05;5.43;;;2.30;;
74679;SDS011;63211;48.548;2.704;2024-01-11T10:08:34;3.42;;;2.10;;
74679;SDS011;63211;48.548;2.704;2024-01-11T10:11:01;4.32;;;2.13;;
74679;SDS011;63211;48.548;2.704;2024-01-11T10:13:29;5.22;;;1.92;;
74679;SDS011;63211;48.548;2.704;2024-01-11T10:16:04;6.90;;;2.03;;
74679;SDS011;63211;48.548;2.704;2024-01-11T10:18:32;3.55;;;1.95;;
74679;SDS011;63211;48.548;2.704;2024-01-11T10:20:58;3.85;;;1.80;;
74679;SDS011;63211;48.548;2.704;2024-01-11T10:23:25;4.53;;;1.88;;
74679;SDS011;63211;48.548;2.704;2024-01-11T10:25:55;3.28;;;1.98;;
74679;SDS011;63211;48.548;2.704;2024-01-11T10:28:22;3.88;;;1.75;;
74679;SDS011;63211;48.548;2.704;2024-01-11T10:30:50;4.97;;;2.20;;
74679;SDS011;63211;48.548;2.704;2024-01-11T10:33:18;3.25;;;1.48;;
74679;SDS011;63211;48.548;2.704;2024-01-11T10:35:46;5.70;;;1.80;;
74679;SDS011;63211;48.548;2.704;2024-01-11T10:38:13;4.18;;;1.90;;
74679;SDS011;63211;48.548;2.704;2024-01-11T10:40:40;3.22;;;1.83;;
74679;SDS011;63211;48.548;2.704;2024-01-11T10:43:09;3.97;;;2.03;;
74679;SDS011;63211;48.548;2.704;2024-01-11T10:45:37;4.47;;;2.05;;
74679;SDS011;63211;48.548;2.704;2024-01-11T10:48:06;3.70;;;1.80;;
74679;SDS011;63211;48.548;2.704;2024-01-11T10:50:34;4.70;;;1.83;;
74679;SDS011;63211;48.548;2.704;2024-01-11T10:53:03;3.83;;;1.73;;
74679;SDS011;63211;48.548;2.704;2024-01-11T10:55:36;3.00;;;1.42;;
74679;SDS011;63211;48.548;2.704;2024-01-11T10:58:03;4.10;;;2.03;;
74679;SDS011;63211;48.548;2.704;2024-01-11T11:00:32;2.47;;;1.30;;
74679;SDS011;63211;48.548;2.704;2024-01-11T11:03:01;3.65;;;1.83;;
74679;SDS011;63211;48.548;2.704;2024-01-11T11:05:31;3.65;;;1.70;;
74679;SDS011;63211;48.548;2.704;2024-01-11T11:08:00;3.30;;;1.42;;
74679;SDS011;63211;48.548;2.704;2024-01-11T11:10:28;4.03;;;1.98;;
74679;SDS011;63211;48.548;2.704;2024-01-11T11:12:55;4.30;;;1.73;;
74679;SDS011;63211;48.548;2.704;2024-01-11T11:15:24;4.50;;;1.85;;
74679;SDS011;63211;48.548;2.704;2024-01-11T11:17:54;2.85;;;1.38;;
74679;SDS011;63211;48.548;2.704;2024-01-11T11:20:21;4.80;;;2.08;;
74679;SDS011;63211;48.548;2.704;2024-01-11T11:22:49;2.42;;;1.27;;
74679;SDS011;63211;48.548;2.704;2024-01-11T11:25:29;3.65;;;1.73;;
74679;SDS011;63211;48.548;2.704;2024-01-11T11:27:57;3.38;;;1.30;;
74679;SDS011;63211;48.548;2.704;2024-01-11T11:30:24;2.90;;;1.40;;
74679;SDS011;63211;48.548;2.704;2024-01-11T11:32:50;4.40;;;1.92;;
74679;SDS011;63211;48.548;2.704;2024-01-11T11:35:19;3.88;;;2.05;;
74679;SDS011;63211;48.548;2.704;2024-01-11T11:37:46;3.17;;;1.63;;
74679;SDS011;63211;48.548;2.704;2024-01-11T11:40:13;3.88;;;1.80;;
74679;SDS011;63211;48.548;2.704;2024-01-11T11:42:41;3.08;;;1.88;;
74679;SDS011;63211;48.548;2.704;2024-01-11T11:45:08;3.78;;;1.67;;
74679;SDS011;63211;48.548;2.704;2024-01-11T11:47:36;3.25;;;1.60;;
74679;SDS011;63211;48.548;2.704;2024-01-11T11:50:06;3.15;;;1.58;;
74679;SDS011;63211;48.548;2.704;2024-01-11T11:52:36;3.25;;;2.08;;
74679;SDS011;63211;48.548;2.704;2024-01-11T11:55:04;4.75;;;1.73;;
74679;SDS011;63211;48.548;2.704;2024-01-11T11:57:33;3.00;;;1.33;;
74679;SDS011;63211;48.548;2.704;2024-01-11T12:00:00;2.85;;;1.55;;
74679;SDS011;63211;48.548;2.704;2024-01-11T12:02:30;3.17;;;1.35;;
74679;SDS011;63211;48.548;2.704;2024-01-11T12:04:57;3.92;;;1.55;;
74679;SDS011;63211;48.548;2.704;2024-01-11T12:07:24;2.80;;;1.35;;
74679;SDS011;63211;48.548;2.704;2024-01-11T12:09:52;2.50;;;1.42;;
74679;SDS011;63211;48.548;2.704;2024-01-11T12:12:18;2.60;;;1.35;;
74679;SDS011;63211;48.548;2.704;2024-01-11T12:14:46;3.80;;;1.73;;
74679;SDS011;63211;48.548;2.704;2024-01-11T12:17:12;4.22;;;2.13;;
74679;SDS011;63211;48.548;2.704;2024-01-11T12:19:39;3.70;;;1.95;;
74679;SDS011;63211;48.548;2.704;2024-01-11T12:22:06;2.85;;;1.33;;
74679;SDS011;63211;48.548;2.704;2024-01-11T12:24:32;3.67;;;2.05;;
74679;SDS011;63211;48.548;2.704;2024-01-11T12:27:01;4.18;;;1.80;;
74679;SDS011;63211;48.548;2.704;2024-01-11T12:29:28;3.80;;;1.52;;
74679;SDS011;63211;48.548;2.704;2024-01-11T12:31:56;3.30;;;1.83;;
74679;SDS011;63211;48.548;2.704;2024-01-11T12:34:23;2.75;;;1.63;;
74679;SDS011;63211;48.548;2.704;2024-01-11T12:36:50;3.28;;;1.35;;
74679;SDS011;63211;48.548;2.704;2024-01-11T12:39:18;3.25;;;1.50;;
74679;SDS011;63211;48.548;2.704;2024-01-11T12:41:47;2.95;;;1.60;;
74679;SDS011;63211;48.548;2.704;2024-01-11T12:44:15;3.72;;;1.45;;
74679;SDS011;63211;48.548;2.704;2024-01-11T12:46:44;2.72;;;1.55;;
74679;SDS011;63211;48.548;2.704;2024-01-11T12:49:11;3.25;;;1.77;;
74679;SDS011;63211;48.548;2.704;2024-01-11T12:51:37;4.72;;;1.80;;
74679;SDS011;63211;48.548;2.704;2024-01-11T12:54:05;3.33;;;1.88;;
74679;SDS011;63211;48.548;2.704;2024-01-11T12:56:40;3.25;;;1.92;;
74679;SDS011;63211;48.548;2.704;2024-01-11T12:59:07;3.60;;;1.80;;
74679;SDS011;63211;48.548;2.704;2024-01-11T13:01:36;4.10;;;1.83;;
74679;SDS011;63211;48.548;2.704;2024-01-11T13:04:03;4.47;;;2.15;;
74679;SDS011;63211;48.548;2.704;2024-01-11T13:06:30;3.95;;;1.77;;
74679;SDS011;63211;48.548;2.704;2024-01-11T13:08:57;3.17;;;1.90;;
74679;SDS011;63211;48.548;2.704;2024-01-11T13:11:24;3.58;;;1.70;;
74679;SDS011;63211;48.548;2.704;2024-01-11T13:13:51;2.92;;;1.88;;
74679;SDS011;63211;48.548;2.704;2024-01-11T13:16:17;3.35;;;1.70;;
74679;SDS011;63211;48.548;2.704;2024-01-11T13:18:45;3.92;;;1.60;;
74679;SDS011;63211;48.548;2.704;2024-01-11T13:21:12;2.88;;;1.50;;
74679;SDS011;63211;48.548;2.704;2024-01-11T13:23:39;2.35;;;1.42;;
74679;SDS011;63211;48.548;2.704;2024-01-11T13:26:06;4.35;;;2.17;;
74679;SDS011;63211;48.548;2.704;2024-01-11T13:28:33;3.53;;;1.80;;
74679;SDS011;63211;48.548;2.704;2024-01-11T13:31:00;3.63;;;2.17;;
74679;SDS011;63211;48.548;2.704;2024-01-11T13:33:27;4.68;;;2.08;;
74679;SDS011;63211;48.548;2.704;2024-01-11T13:35:55;3.75;;;1.83;;
74679;SDS011;63211;48.548;2.704;2024-01-11T13:38:22;4.68;;;1.95;;
74679;SDS011;63211;48.548;2.704;2024-01-11T13:40:48;2.30;;;1.60;;
74679;SDS011;63211;48.548;2.704;2024-01-11T13:43:15;4.03;;;2.15;;
74679;SDS011;63211;48.548;2.704;2024-01-11T13:45:42;4.55;;;1.88;;
74679;SDS011;63211;48.548;2.704;2024-01-11T13:48:09;3.95;;;2.03;;
74679;SDS011;63211;48.548;2.704;2024-01-11T13:50:36;4.35;;;2.30;;
74679;SDS011;63211;48.548;2.704;2024-01-11T13:53:04;3.92;;;1.83;;
74679;SDS011;63211;48.548;2.704;2024-01-11T13:55:31;3.00;;;1.92;;
74679;SDS011;63211;48.548;2.704;2024-01-11T13:58:03;3.88;;;1.80;;
74679;SDS011;63211;48.548;2.704;2024-01-11T14:00:30;7.30;;;2.95;;
74679;SDS011;63211;48.548;2.704;2024-01-11T14:02:56;6.95;;;2.88;;
74679;SDS011;63211;48.548;2.704;2024-01-11T14:05:23;6.93;;;2.53;;
74679;SDS011;63211;48.548;2.704;2024-01-11T14:07:50;4.70;;;2.72;;
74679;SDS011;63211;48.548;2.704;2024-01-11T14:10:20;7.85;;;2.40;;
74679;SDS011;63211;48.548;2.704;2024-01-11T14:12:47;6.10;;;2.28;;
74679;SDS011;63211;48.548;2.704;2024-01-11T14:15:15;6.75;;;2.38;;
74679;SDS011;63211;48.548;2.704;2024-01-11T14:17:41;3.50;;;1.80;;
74679;SDS011;63211;48.548;2.704;2024-01-11T14:20:08;4.05;;;1.90;;
74679;SDS011;63211;48.548;2.704;2024-01-11T14:22:37;6.72;;;2.63;;
74679;SDS011;63211;48.548;2.704;2024-01-11T14:25:04;5.43;;;2.53;;
74679;SDS011;63211;48.548;2.704;2024-01-11T14:27:33;4.05;;;2.13;;
74679;SDS011;63211;48.548;2.704;2024-01-11T14:29:59;6.32;;;2.30;;
74679;SDS011;63211;48.548;2.704;2024-01-11T14:32:26;7.38;;;2.55;;
74679;SDS011;63211;48.548;2.704;2024-01-11T14:34:53;4.78;;;2.22;;
74679;SDS011;63211;48.548;2.704;2024-01-11T14:37:20;5.03;;;2.50;;
74679;SDS011;63211;48.548;2.704;2024-01-11T14:39:46;4.97;;;2.20;;
74679;SDS011;63211;48.548;2.704;2024-01-11T14:42:13;3.42;;;2.00;;
74679;SDS011;63211;48.548;2.704;2024-01-11T14:44:41;4.28;;;2.08;;
74679;SDS011;63211;48.548;2.704;2024-01-11T14:47:07;3.63;;;2.15;;